Maersk Ahram — SSML — position and weather

sailwx.info

Track history (hours):
 
Tides and Currents Weather Stations Pressure Air Temp Water Temp Dewpoint Dewpoint Depression Visibility Wind Speed Wind Dir Waves Ship Positions

Maersk Ahram

Last reported at 2018-May-21 11:00 UTC. Time now 2018-May-21 11:20 UTC.
Position N 52°51' E 004°14'.

Length 155 m; draft 6 m.

Type: Cargo ship. MMSI: 622122208.

Date/timePositionNaut miles runAvg speedWind from/ knotsBaromVisibWave heightAir tempDewpointWater temp
2018-May-21 11:00N 52°51' E 004°14'815.9
2018-May-21 10:30N 52°45' E 004°06'815.8
2018-May-21 10:00N 52°39' E 003°59'816.0
2018-May-21 09:30N 52°32' E 003°52'816.3
2018-May-21 09:00N 52°24' E 003°52'816.4
2018-May-21 08:30N 52°15' E 003°53'816.9
2018-May-21 08:00N 52°07' E 003°55'510.8
2018-May-21 07:30N 52°02' E 003°57'612.7
2018-May-21 07:00N 51°58' E 004°05'3 6.4
2018-May-21 06:30N 51°58' E 003°60'1 2.1
2018-May-21 06:01N 51°57' E 004°00'0 0.0
2018-May-21 05:31N 51°57' E 004°00'0 0.0
2018-May-21 05:00N 51°57' E 004°00'0 0.2
2018-May-21 04:30N 51°57' E 004°00'0 0.2
2018-May-21 04:01N 51°57' E 004°00'0 0.0
2018-May-21 03:30N 51°57' E 004°00'0 0.0
2018-May-21 03:00N 51°57' E 004°00'0 0.0
2018-May-21 02:30N 51°57' E 004°00'0 0.0
2018-May-21 02:00N 51°57' E 004°00'0 0.0
2018-May-21 01:30N 51°57' E 004°00'0 0.0
2018-May-21 01:00N 51°57' E 004°00'0 0.0
2018-May-21 00:30N 51°57' E 004°00'0 0.0
2018-May-21 00:00N 51°57' E 004°00'0 0.0
2018-May-20 23:30N 51°57' E 004°00'0 0.0
2018-May-20 23:01N 51°57' E 004°00'0 0.0
2018-May-20 22:31N 51°57' E 004°00'0 0.0
2018-May-20 22:00N 51°57' E 004°00'0 0.0
2018-May-20 21:30N 51°57' E 004°00'0 0.0
2018-May-20 21:00N 51°57' E 004°00'0 0.0
2018-May-20 20:30N 51°57' E 004°00'0 0.0
2018-May-20 20:00N 51°57' E 004°00'0 0.0
2018-May-20 19:30N 51°57' E 004°00'0 0.0
2018-May-20 19:00N 51°57' E 004°00'0 0.0
2018-May-20 18:31N 51°57' E 004°00'0 0.0
2018-May-20 18:00N 51°57' E 004°00'0 0.1
2018-May-20 17:30N 51°57' E 004°00'1 2.9
2018-May-20 17:01N 51°58' E 004°01'2 3.6
2018-May-20 16:30N 51°59' E 004°04'510.3
2018-May-20 16:00N 51°60' E 003°56'510.1
2018-May-20 15:31N 51°60' E 003°48'510.9
2018-May-20 15:00N 51°57' E 003°41'3 5.3
2018-May-20 14:30N 51°55' E 003°37'0 0.1
2018-May-20 14:00N 51°55' E 003°37'0 0.0
2018-May-20 13:30N 51°55' E 003°37'0 0.0
2018-May-20 13:00N 51°55' E 003°37'0 0.0
2018-May-20 12:24N 51°55' E 003°37'0 0.0
2018-May-20 12:00N 51°55' E 003°37'0 0.0
2018-May-20 11:30N 51°55' E 003°37'0 0.1
2018-May-20 10:36N 51°55' E 003°38'0 0.0
2018-May-20 10:27N 51°55' E 003°38'0 0.0
2018-May-20 09:57N 51°55' E 003°38'0 0.0
2018-May-20 09:30N 51°55' E 003°38'0 0.2
2018-May-20 09:00N 51°55' E 003°38'0 0.1
2018-May-20 08:27N 51°55' E 003°38'0 0.0
2018-May-20 07:57N 51°55' E 003°38'0 0.0
2018-May-20 06:54N 51°55' E 003°38'0 0.0
2018-May-20 04:06N 51°55' E 003°38'0 0.1
2018-May-20 04:00N 51°55' E 003°38'0 0.1
2018-May-20 03:27N 51°55' E 003°38'0 0.2
2018-May-20 02:57N 51°55' E 003°38'0 0.1
2018-May-20 02:30N 51°55' E 003°37'0 0.0
2018-May-20 01:57N 51°55' E 003°37'0 0.0
2018-May-20 01:30N 51°55' E 003°37'0 0.0
2018-May-20 00:57N 51°55' E 003°37'0 0.0
2018-May-20 00:24N 51°55' E 003°37'0 0.0
2018-May-19 23:51N 51°55' E 003°37'0 0.0
2018-May-19 23:30N 51°55' E 003°37'0 0.0
2018-May-19 23:00N 51°55' E 003°37'0 0.0
2018-May-19 22:30N 51°55' E 003°37'0 0.0
2018-May-19 22:00N 51°55' E 003°38'0 0.0
2018-May-19 21:27N 51°55' E 003°38'0 0.0
2018-May-19 21:00N 51°55' E 003°38'0 0.2
2018-May-19 20:30N 51°55' E 003°38'0 0.1
2018-May-19 19:54N 51°55' E 003°38'0 0.0
2018-May-19 19:30N 51°55' E 003°38'0 0.0
2018-May-19 18:57N 51°55' E 003°38'0 0.0
2018-May-19 18:27N 51°55' E 003°38'0 0.0
2018-May-19 17:57N 51°55' E 003°38'0 0.0
2018-May-19 17:30N 51°55' E 003°38'0 0.0
2018-May-19 17:00N 51°55' E 003°38'0 0.0
2018-May-19 16:30N 51°55' E 003°38'0 0.1
2018-May-19 16:00N 51°55' E 003°38'0 0.2
2018-May-19 15:30N 51°55' E 003°38'0 0.2
2018-May-19 14:57N 51°55' E 003°38'0 0.0
2018-May-19 14:27N 51°55' E 003°38'0 0.0
2018-May-19 14:00N 51°55' E 003°38'0 0.0
2018-May-19 13:30N 51°55' E 003°37'0 0.0
2018-May-19 12:18N 51°55' E 003°38'0 0.0
2018-May-19 11:51N 51°55' E 003°38'0 0.0
2018-May-19 11:18N 51°55' E 003°38'0 0.0
2018-May-19 10:57N 51°55' E 003°38'0 0.0
2018-May-19 10:27N 51°55' E 003°38'0 0.0
2018-May-19 10:00N 51°55' E 003°38'0 0.1
2018-May-19 08:15N 51°55' E 003°38'0 1.6
2018-May-19 08:00N 51°55' E 003°37'613.0
2018-May-19 07:31N 51°56' E 003°27'815.7
2018-May-19 06:59N 51°54' E 003°14'816.0
2018-May-19 06:31N 51°51' E 003°02'916.2
2018-May-19 05:56N 51°48' E 002°49'916.5
2018-May-19 05:25N 51°44' E 002°36'717.0
2018-May-19 05:00N 51°39' E 002°28'917.2
2018-May-19 04:28N 51°32' E 002°18'817.3
2018-May-19 03:59N 51°26' E 002°09'817.6
2018-May-19 03:30N 51°21' E 001°59'917.9
2018-May-19 03:00N 51°14' E 001°50'918.5
2018-May-19 02:30N 51°07' E 001°41'918.6
2018-May-19 02:01N 50°60' E 001°31'6416.3
2018-May-18 22:05N 50°20' E 000°11'117.8
2018-May-18 22:00N 50°20' E 000°09'917.4
2018-May-18 21:31N 50°17' W 000°04'917.2
2018-May-18 21:00N 50°16' W 000°18'817.2
2018-May-18 20:30N 50°14' W 000°31'816.9
2018-May-18 20:00N 50°12' W 000°43'816.2
2018-May-18 19:31N 50°10' W 000°56'815.5
2018-May-18 19:00N 50°08' W 001°07'714.7
2018-May-18 18:30N 50°06' W 001°18'714.0
2018-May-18 18:01N 50°04' W 001°28'713.2
2018-May-18 17:31N 50°02' W 001°38'612.4
2018-May-18 17:00N 50°00' W 001°48'612.0
2018-May-18 16:30N 49°59' W 001°57'611.5
2018-May-18 16:00N 49°57' W 002°05'611.4
2018-May-18 15:30N 49°56' W 002°14'612.0
2018-May-18 15:00N 49°55' W 002°23'712.7
2018-May-18 14:30N 49°54' W 002°33'713.4
2018-May-18 13:59N 49°52' W 002°43'713.9
2018-May-18 13:29N 49°50' W 002°53'814.3
2018-May-18 12:58N 49°48' W 003°05'714.5
2018-May-18 12:31N 49°47' W 003°15'1214.6
2018-May-18 11:40N 49°46' W 003°34'3115.2
2018-May-18 09:38N 49°48' W 004°21'915.9
2018-May-18 09:05N 49°49' W 004°35'116.0
2018-May-18 09:01N 49°49' W 004°37'816.1
2018-May-18 08:31N 49°50' W 004°49'1116.5
2018-May-18 07:49N 49°51' W 005°07'617.0
2018-May-18 07:28N 49°51' W 005°16'816.7
2018-May-18 06:59N 49°51' W 005°29'916.4
2018-May-18 06:27N 49°51' W 005°42'916.1
2018-May-18 05:54N 49°52' W 005°56'512.6
2018-May-18 05:30N 49°56' W 006°01'714.3
2018-May-18 05:01N 50°03' W 006°01'814.3
2018-May-18 04:29N 50°10' W 006°01'714.5
2018-May-18 04:00N 50°17' W 006°02'714.9
2018-May-18 03:30N 50°25' W 006°02'815.5
2018-May-18 03:01N 50°32' W 006°02'815.9
2018-May-18 02:30N 50°40' W 006°02'816.1
2018-May-18 02:00N 50°48' W 006°02'816.3
2018-May-18 01:30N 50°57' W 006°02'816.4
2018-May-18 01:00N 51°05' W 006°01'816.3
2018-May-18 00:30N 51°13' W 006°01'816.0
2018-May-18 00:00N 51°21' W 006°01'815.8
2018-May-17 23:30N 51°29' W 006°01'815.5
2018-May-17 23:00N 51°37' W 006°01'815.0
2018-May-17 22:30N 51°44' W 005°58'714.4
2018-May-17 22:01N 51°51' W 005°54'2013.3
2018-May-17 20:29N 52°09' W 005°42'1513.6
2018-May-17 19:21N 52°24' W 005°33'514.5
2018-May-17 19:00N 52°29' W 005°30'815.3
2018-May-17 18:29N 52°36' W 005°25'816.4
2018-May-17 18:00N 52°43' W 005°21'917.5
2018-May-17 17:30N 52°51' W 005°15'1318.6
2018-May-17 16:50N 53°03' W 005°09'818.5
2018-May-17 16:25N 53°10' W 005°04'4016.5
2018-May-17 13:59N 53°34' W 004°10'817.3
2018-May-17 13:30N 53°34' W 003°56'816.4
2018-May-17 13:00N 53°34' W 003°42'815.7
2018-May-17 12:30N 53°33' W 003°29'714.7
2018-May-17 12:00N 53°32' W 003°17'611.7
2018-May-17 11:29N 53°31' W 003°07'611.5
2018-May-17 11:00N 53°27' W 003°01'0 0.9
2018-May-17 10:30N 53°27' W 003°01'0 0.5
2018-May-17 10:00N 53°27' W 003°01'0 0.7
2018-May-17 09:30N 53°28' W 003°01'0 0.0
2018-May-17 09:00N 53°28' W 003°01'0 0.0
2018-May-17 08:30N 53°28' W 003°01'0 0.0
2018-May-17 08:00N 53°28' W 003°01'0 0.0
2018-May-17 07:30N 53°28' W 003°01'0 0.0
2018-May-17 07:00N 53°28' W 003°01'0 0.0
2018-May-17 06:30N 53°28' W 003°01'0 0.0
2018-May-17 06:00N 53°28' W 003°01'0 0.0
2018-May-17 05:30N 53°28' W 003°01'0 0.0
2018-May-17 05:00N 53°28' W 003°01'0 0.0
2018-May-17 04:31N 53°28' W 003°01'0 0.0
2018-May-17 03:58N 53°28' W 003°01'0 0.0
2018-May-17 03:30N 53°28' W 003°01'0 0.0
2018-May-17 03:01N 53°28' W 003°01'0 0.0
2018-May-17 02:30N 53°28' W 003°01'0 0.0
2018-May-17 02:00N 53°28' W 003°01'0 0.0
2018-May-17 01:30N 53°28' W 003°01'0 0.0
2018-May-17 01:00N 53°28' W 003°01'0 0.0
2018-May-17 00:30N 53°28' W 003°01'0 0.0
2018-May-17 00:01N 53°28' W 003°01'0 0.0
2018-May-16 23:30N 53°28' W 003°01'0 0.0
2018-May-16 23:00N 53°28' W 003°01'0 0.0
2018-May-16 22:29N 53°28' W 003°01'0 0.0
2018-May-16 22:00N 53°28' W 003°01'0 0.0
2018-May-16 21:30N 53°28' W 003°01'0 0.0
2018-May-16 21:00N 53°28' W 003°01'0 0.0
2018-May-16 20:30N 53°28' W 003°01'0 0.0
2018-May-16 20:00N 53°28' W 003°01'0 0.0
2018-May-16 19:31N 53°28' W 003°01'0 0.0
2018-May-16 19:00N 53°28' W 003°01'0 0.0
2018-May-16 18:30N 53°28' W 003°01'0 0.0
2018-May-16 18:00N 53°28' W 003°01'0 0.0
2018-May-16 17:30N 53°28' W 003°01'0 0.0
2018-May-16 17:00N 53°28' W 003°01'0 0.0
2018-May-16 16:30N 53°28' W 003°01'0 0.0
2018-May-16 16:00N 53°28' W 003°01'0 0.0
2018-May-16 15:31N 53°28' W 003°01'0 0.0
2018-May-16 15:01N 53°28' W 003°01'0 0.0
2018-May-16 14:30N 53°28' W 003°01'0 0.0
2018-May-16 14:01N 53°28' W 003°01'0 0.0
2018-May-16 13:30N 53°28' W 003°01'0 0.0
2018-May-16 13:01N 53°28' W 003°01'0 0.0
2018-May-16 12:30N 53°28' W 003°01'0 0.0
2018-May-16 12:00N 53°28' W 003°01'0 0.0
2018-May-16 11:30N 53°28' W 003°01'0 0.0
2018-May-16 11:00N 53°28' W 003°01'1 1.3
2018-May-16 10:31N 53°27' W 003°01'0 0.3
2018-May-16 10:00N 53°27' W 003°01'1 1.2
2018-May-16 09:29N 53°27' W 003°02'3 6.4
2018-May-16 09:01N 53°29' W 003°05'5 9.0
2018-May-16 08:30N 53°31' W 003°12'510.3
2018-May-16 08:01N 53°31' W 003°21'4 8.3
2018-May-16 07:30N 53°31' W 003°28'815.1
2018-May-16 06:59N 53°30' W 003°41'714.6
2018-May-16 06:30N 53°28' W 003°52'714.3
2018-May-16 06:00N 53°26' W 004°04'4 0.3
2018-May-15 17:09N 53°23' W 004°10'0 0.4
2018-May-15 16:51N 53°24' W 004°10'0 0.2
2018-May-15 16:30N 53°24' W 004°10'0 0.0
2018-May-15 16:00N 53°24' W 004°10'0 0.0
2018-May-15 15:00N 53°24' W 004°10'0 0.0
2018-May-15 13:12N 53°24' W 004°10'12211.9
2018-May-15 02:55N 51°37' W 005°46'613.5
2018-May-15 02:30N 51°35' W 005°38'713.1
2018-May-15 02:00N 51°33' W 005°28'712.9
2018-May-15 01:30N 51°31' W 005°18'613.0
2018-May-15 01:01N 51°29' W 005°08'714.0
2018-May-15 00:30N 51°26' W 004°58'714.6
2018-May-15 00:01N 51°24' W 004°47'914.7
2018-May-14 23:24N 51°22' W 004°33'815.3
2018-May-14 22:51N 51°22' W 004°19'616.8
2018-May-14 22:29N 51°22' W 004°09'817.0
2018-May-14 22:00N 51°22' W 003°56'917.6
2018-May-14 21:30N 51°22' W 003°42'1817.7
2018-May-14 20:31N 51°21' W 003°14'010.7
2018-May-14 20:30N 51°21' W 003°14'612.1
2018-May-14 20:01N 51°23' W 003°05'815.2
2018-May-14 19:30N 51°28' W 002°55'713.6
2018-May-14 19:00N 51°30' W 002°45'1 1.7
2018-May-14 18:30N 51°30' W 002°43'0 0.6
2018-May-14 18:00N 51°30' W 002°43'0 0.0
2018-May-14 17:30N 51°30' W 002°43'0 0.0
2018-May-14 17:00N 51°30' W 002°43'0 0.0
2018-May-14 16:30N 51°30' W 002°43'0 0.0
2018-May-14 16:00N 51°30' W 002°43'0 0.0
2018-May-14 15:30N 51°30' W 002°43'0 0.0
2018-May-14 15:00N 51°30' W 002°43'0 0.0
2018-May-14 14:30N 51°30' W 002°43'0 0.0
2018-May-14 14:00N 51°30' W 002°43'0 0.0
2018-May-14 13:30N 51°30' W 002°43'0 0.0
2018-May-14 13:00N 51°30' W 002°43'0 0.0
2018-May-14 12:30N 51°30' W 002°43'0 0.0
2018-May-14 11:54N 51°30' W 002°43'0 0.0
2018-May-14 11:30N 51°30' W 002°43'0 0.0
2018-May-14 11:00N 51°30' W 002°43'0 0.0
2018-May-14 10:30N 51°30' W 002°43'0 0.0
2018-May-14 10:00N 51°30' W 002°43'0 0.0
2018-May-14 09:30N 51°30' W 002°43'0 0.0
2018-May-14 09:00N 51°30' W 002°43'0 0.0
2018-May-14 08:30N 51°30' W 002°43'0 0.0
2018-May-14 08:00N 51°30' W 002°43'0 0.0
2018-May-14 07:30N 51°30' W 002°43'0 0.0
2018-May-14 07:00N 51°30' W 002°43'0 0.0
2018-May-14 06:30N 51°30' W 002°43'0 0.0
2018-May-14 06:00N 51°30' W 002°43'0 0.0
2018-May-14 05:30N 51°30' W 002°43'0 0.0
2018-May-14 04:57N 51°30' W 002°43'0 0.0
2018-May-14 04:30N 51°30' W 002°43'0 0.7
2018-May-14 04:00N 51°30' W 002°43'0 0.1
2018-May-14 03:30N 51°30' W 002°44'1 1.3
2018-May-14 03:00N 51°31' W 002°44'3 7.0
2018-May-14 02:30N 51°29' W 002°49'713.3
2018-May-14 02:01N 51°27' W 002°59'815.9
2018-May-14 01:30N 51°22' W 003°08'6 9.6
2018-May-14 00:55N 51°20' W 003°17'7 9.7
2018-May-14 00:13N 51°14' W 003°23'22 2.1
2018-May-13 13:50N 51°23' W 003°54'2015.3
2018-May-13 12:30N 51°22' W 004°27'915.4
2018-May-13 11:55N 51°20' W 004°41'615.4
2018-May-13 11:31N 51°15' W 004°47'714.8
2018-May-13 11:01N 51°09' W 004°55'714.5
2018-May-13 10:31N 51°04' W 005°02'714.3
2018-May-13 10:01N 50°58' W 005°09'714.1
2018-May-13 09:31N 50°53' W 005°17'714.1
2018-May-13 09:01N 50°48' W 005°24'713.9
2018-May-13 08:30N 50°42' W 005°31'713.9
2018-May-13 08:01N 50°37' W 005°38'1013.8
2018-May-13 07:17N 50°29' W 005°47'3511.7
2018-May-13 04:15N 49°54' W 005°44'313.2
2018-May-13 03:59N 49°54' W 005°39'2013.0
2018-May-13 02:26N 49°55' W 005°08'613.6
2018-May-13 01:59N 49°55' W 004°58'713.8
2018-May-13 01:30N 49°56' W 004°47'1014.2
2018-May-13 00:49N 49°56' W 004°33'514.5
2018-May-13 00:30N 49°57' W 004°25'815.0
2018-May-13 00:00N 49°57' W 004°14'915.3
2018-May-12 23:26N 49°58' W 004°00'915.6
2018-May-12 22:50N 49°58' W 003°46'515.8
2018-May-12 22:31N 49°58' W 003°38'815.6
2018-May-12 22:00N 49°58' W 003°26'815.5
2018-May-12 21:30N 49°59' W 003°14'815.0
2018-May-12 21:00N 49°60' W 003°02'714.6
2018-May-12 20:30N 50°02' W 002°51'714.1
2018-May-12 20:00N 50°04' W 002°41'713.6
2018-May-12 19:30N 50°06' W 002°30'613.0
2018-May-12 19:01N 50°07' W 002°21'612.3
2018-May-12 18:30N 50°09' W 002°12'611.9
2018-May-12 17:59N 50°11' W 002°02'811.6
2018-May-12 17:18N 50°13' W 001°50'411.7
2018-May-12 16:57N 50°14' W 001°44'1112.4
2018-May-12 16:03N 50°17' W 001°27'2014.6
2018-May-12 14:43N 50°22' W 000°58'417.2
2018-May-12 14:30N 50°23' W 000°52'816.5
2018-May-12 14:00N 50°25' W 000°39'816.3
2018-May-12 13:30N 50°26' W 000°27'816.5
2018-May-12 13:00N 50°28' W 000°14'816.3
2018-May-12 12:30N 50°30' W 000°02'816.3
2018-May-12 12:00N 50°32' E 000°10'816.0
2018-May-12 11:30N 50°34' E 000°23'815.6
2018-May-12 11:00N 50°36' E 000°35'815.0
2018-May-12 10:30N 50°40' E 000°45'714.5
2018-May-12 10:00N 50°43' E 000°55'713.6
2018-May-12 09:30N 50°47' E 001°04'713.1
2018-May-12 09:00N 50°51' E 001°12'713.1
2018-May-12 08:30N 50°56' E 001°19'713.2
2018-May-12 08:00N 51°01' E 001°26'713.9
2018-May-12 07:30N 51°06' E 001°34'714.7
2018-May-12 07:00N 51°11' E 001°42'815.5
2018-May-12 06:30N 51°18' E 001°49'816.2
2018-May-12 06:01N 51°25' E 001°53'816.0
2018-May-12 05:30N 51°31' E 002°02'815.9
2018-May-12 05:00N 51°37' E 002°11'815.8
2018-May-12 04:30N 51°42' E 002°20'815.4
2018-May-12 04:00N 51°48' E 002°28'2114.5
2018-May-12 02:33N 52°02' E 002°54'215.1
2018-May-12 02:26N 52°02' E 002°57'614.9
2018-May-12 02:00N 52°03' E 003°07'714.7
2018-May-12 01:30N 52°03' E 003°19'714.5
2018-May-12 01:00N 52°04' E 003°31'714.3
2018-May-12 00:30N 52°04' E 003°42'713.6
2018-May-12 00:00N 52°03' E 003°53'5 9.7
2018-May-11 23:30N 52°01' E 004°00'4 8.1
2018-May-11 23:00N 51°58' E 004°05'3 6.3
2018-May-11 22:30N 51°58' E 003°60'1 1.6
2018-May-11 22:00N 51°57' E 004°00'0 0.0
2018-May-11 21:24N 51°57' E 004°00'0 0.0
2018-May-11 20:57N 51°57' E 004°00'0 0.0
2018-May-11 20:27N 51°57' E 004°00'0 0.0
2018-May-11 20:00N 51°57' E 004°00'0 0.0
2018-May-11 19:30N 51°57' E 004°00'0 0.0
2018-May-11 19:00N 51°57' E 004°00'0 0.0
2018-May-11 18:30N 51°57' E 004°00'0 0.0
2018-May-11 18:00N 51°57' E 004°00'0 0.0
2018-May-11 17:27N 51°57' E 004°00'0 0.0
2018-May-11 17:00N 51°57' E 004°00'0 0.0
2018-May-11 16:30N 51°57' E 004°00'0 0.0
2018-May-11 16:00N 51°57' E 004°00'0 0.0
2018-May-11 15:30N 51°57' E 004°00'0 0.0
2018-May-11 15:00N 51°57' E 004°00'0 0.0
2018-May-11 14:30N 51°57' E 004°00'0 0.0
2018-May-11 13:54N 51°57' E 004°00'0 0.0
2018-May-11 13:30N 51°57' E 004°00'0 0.0
2018-May-11 13:00N 51°57' E 004°00'0 0.0
2018-May-11 12:30N 51°57' E 004°00'0 0.0
2018-May-11 12:00N 51°57' E 004°00'0 0.0
2018-May-11 11:27N 51°57' E 004°00'0 0.0
2018-May-11 11:00N 51°57' E 004°00'  
Track history (hours):
 
Tides and Currents Weather Stations Pressure Air Temp Water Temp Dewpoint Dewpoint Depression Visibility Wind Speed Wind Dir Waves Ship Positions

Maersk Ahram

Last reported at 2018-May-21 11:00 UTC. Time now 2018-May-21 11:20 UTC.
Position N 52°51' E 004°14'.

Length 155 m; draft 6 m.

Type: Cargo ship. MMSI: 622122208.

Date/timePositionNaut miles runAvg speedWind from/ knotsBaromVisibWave heightAir tempDewpointWater temp
2018-May-21 11:00N 52°51' E 004°14'815.9
2018-May-21 10:30N 52°45' E 004°06'815.8
2018-May-21 10:00N 52°39' E 003°59'816.0
2018-May-21 09:30N 52°32' E 003°52'816.3
2018-May-21 09:00N 52°24' E 003°52'816.4
2018-May-21 08:30N 52°15' E 003°53'816.9
2018-May-21 08:00N 52°07' E 003°55'510.8
2018-May-21 07:30N 52°02' E 003°57'612.7
2018-May-21 07:00N 51°58' E 004°05'3 6.4
2018-May-21 06:30N 51°58' E 003°60'1 2.1
2018-May-21 06:01N 51°57' E 004°00'0 0.0
2018-May-21 05:31N 51°57' E 004°00'0 0.0
2018-May-21 05:00N 51°57' E 004°00'0 0.2
2018-May-21 04:30N 51°57' E 004°00'0 0.2
2018-May-21 04:01N 51°57' E 004°00'0 0.0
2018-May-21 03:30N 51°57' E 004°00'0 0.0
2018-May-21 03:00N 51°57' E 004°00'0 0.0
2018-May-21 02:30N 51°57' E 004°00'0 0.0
2018-May-21 02:00N 51°57' E 004°00'0 0.0
2018-May-21 01:30N 51°57' E 004°00'0 0.0
2018-May-21 01:00N 51°57' E 004°00'0 0.0
2018-May-21 00:30N 51°57' E 004°00'0 0.0
2018-May-21 00:00N 51°57' E 004°00'0 0.0
2018-May-20 23:30N 51°57' E 004°00'0 0.0
2018-May-20 23:01N 51°57' E 004°00'0 0.0
2018-May-20 22:31N 51°57' E 004°00'0 0.0
2018-May-20 22:00N 51°57' E 004°00'0 0.0
2018-May-20 21:30N 51°57' E 004°00'0 0.0
2018-May-20 21:00N 51°57' E 004°00'0 0.0
2018-May-20 20:30N 51°57' E 004°00'0 0.0
2018-May-20 20:00N 51°57' E 004°00'0 0.0
2018-May-20 19:30N 51°57' E 004°00'0 0.0
2018-May-20 19:00N 51°57' E 004°00'0 0.0
2018-May-20 18:31N 51°57' E 004°00'0 0.0
2018-May-20 18:00N 51°57' E 004°00'0 0.1
2018-May-20 17:30N 51°57' E 004°00'1 2.9
2018-May-20 17:01N 51°58' E 004°01'2 3.6
2018-May-20 16:30N 51°59' E 004°04'510.3
2018-May-20 16:00N 51°60' E 003°56'510.1
2018-May-20 15:31N 51°60' E 003°48'510.9
2018-May-20 15:00N 51°57' E 003°41'3 5.3
2018-May-20 14:30N 51°55' E 003°37'0 0.1
2018-May-20 14:00N 51°55' E 003°37'0 0.0
2018-May-20 13:30N 51°55' E 003°37'0 0.0
2018-May-20 13:00N 51°55' E 003°37'0 0.0
2018-May-20 12:24N 51°55' E 003°37'0 0.0
2018-May-20 12:00N 51°55' E 003°37'0 0.0
2018-May-20 11:30N 51°55' E 003°37'0 0.1
2018-May-20 10:36N 51°55' E 003°38'0 0.0
2018-May-20 10:27N 51°55' E 003°38'0 0.0
2018-May-20 09:57N 51°55' E 003°38'0 0.0
2018-May-20 09:30N 51°55' E 003°38'0 0.2
2018-May-20 09:00N 51°55' E 003°38'0 0.1
2018-May-20 08:27N 51°55' E 003°38'0 0.0
2018-May-20 07:57N 51°55' E 003°38'0 0.0
2018-May-20 06:54N 51°55' E 003°38'0 0.0
2018-May-20 04:06N 51°55' E 003°38'0 0.1
2018-May-20 04:00N 51°55' E 003°38'0 0.1
2018-May-20 03:27N 51°55' E 003°38'0 0.2
2018-May-20 02:57N 51°55' E 003°38'0 0.1
2018-May-20 02:30N 51°55' E 003°37'0 0.0
2018-May-20 01:57N 51°55' E 003°37'0 0.0
2018-May-20 01:30N 51°55' E 003°37'0 0.0
2018-May-20 00:57N 51°55' E 003°37'0 0.0
2018-May-20 00:24N 51°55' E 003°37'0 0.0
2018-May-19 23:51N 51°55' E 003°37'0 0.0
2018-May-19 23:30N 51°55' E 003°37'0 0.0
2018-May-19 23:00N 51°55' E 003°37'0 0.0
2018-May-19 22:30N 51°55' E 003°37'0 0.0
2018-May-19 22:00N 51°55' E 003°38'0 0.0
2018-May-19 21:27N 51°55' E 003°38'0 0.0
2018-May-19 21:00N 51°55' E 003°38'0 0.2
2018-May-19 20:30N 51°55' E 003°38'0 0.1
2018-May-19 19:54N 51°55' E 003°38'0 0.0
2018-May-19 19:30N 51°55' E 003°38'0 0.0
2018-May-19 18:57N 51°55' E 003°38'0 0.0
2018-May-19 18:27N 51°55' E 003°38'0 0.0
2018-May-19 17:57N 51°55' E 003°38'0 0.0
2018-May-19 17:30N 51°55' E 003°38'0 0.0
2018-May-19 17:00N 51°55' E 003°38'0 0.0
2018-May-19 16:30N 51°55' E 003°38'0 0.1
2018-May-19 16:00N 51°55' E 003°38'0 0.2
2018-May-19 15:30N 51°55' E 003°38'0 0.2
2018-May-19 14:57N 51°55' E 003°38'0 0.0
2018-May-19 14:27N 51°55' E 003°38'0 0.0
2018-May-19 14:00N 51°55' E 003°38'0 0.0
2018-May-19 13:30N 51°55' E 003°37'0 0.0
2018-May-19 12:18N 51°55' E 003°38'0 0.0
2018-May-19 11:51N 51°55' E 003°38'0 0.0
2018-May-19 11:18N 51°55' E 003°38'0 0.0
2018-May-19 10:57N 51°55' E 003°38'0 0.0
2018-May-19 10:27N 51°55' E 003°38'0 0.0
2018-May-19 10:00N 51°55' E 003°38'0 0.1
2018-May-19 08:15N 51°55' E 003°38'0 1.6
2018-May-19 08:00N 51°55' E 003°37'613.0
2018-May-19 07:31N 51°56' E 003°27'815.7
2018-May-19 06:59N 51°54' E 003°14'816.0
2018-May-19 06:31N 51°51' E 003°02'916.2
2018-May-19 05:56N 51°48' E 002°49'916.5
2018-May-19 05:25N 51°44' E 002°36'717.0
2018-May-19 05:00N 51°39' E 002°28'917.2
2018-May-19 04:28N 51°32' E 002°18'817.3
2018-May-19 03:59N 51°26' E 002°09'817.6
2018-May-19 03:30N 51°21' E 001°59'917.9
2018-May-19 03:00N 51°14' E 001°50'918.5
2018-May-19 02:30N 51°07' E 001°41'918.6
2018-May-19 02:01N 50°60' E 001°31'6416.3
2018-May-18 22:05N 50°20' E 000°11'117.8
2018-May-18 22:00N 50°20' E 000°09'917.4
2018-May-18 21:31N 50°17' W 000°04'917.2
2018-May-18 21:00N 50°16' W 000°18'817.2
2018-May-18 20:30N 50°14' W 000°31'816.9
2018-May-18 20:00N 50°12' W 000°43'816.2
2018-May-18 19:31N 50°10' W 000°56'815.5
2018-May-18 19:00N 50°08' W 001°07'714.7
2018-May-18 18:30N 50°06' W 001°18'714.0
2018-May-18 18:01N 50°04' W 001°28'713.2
2018-May-18 17:31N 50°02' W 001°38'612.4
2018-May-18 17:00N 50°00' W 001°48'612.0
2018-May-18 16:30N 49°59' W 001°57'611.5
2018-May-18 16:00N 49°57' W 002°05'611.4
2018-May-18 15:30N 49°56' W 002°14'612.0
2018-May-18 15:00N 49°55' W 002°23'712.7
2018-May-18 14:30N 49°54' W 002°33'713.4
2018-May-18 13:59N 49°52' W 002°43'713.9
2018-May-18 13:29N 49°50' W 002°53'814.3
2018-May-18 12:58N 49°48' W 003°05'714.5
2018-May-18 12:31N 49°47' W 003°15'1214.6
2018-May-18 11:40N 49°46' W 003°34'3115.2
2018-May-18 09:38N 49°48' W 004°21'915.9
2018-May-18 09:05N 49°49' W 004°35'116.0
2018-May-18 09:01N 49°49' W 004°37'816.1
2018-May-18 08:31N 49°50' W 004°49'1116.5
2018-May-18 07:49N 49°51' W 005°07'617.0
2018-May-18 07:28N 49°51' W 005°16'816.7
2018-May-18 06:59N 49°51' W 005°29'916.4
2018-May-18 06:27N 49°51' W 005°42'916.1
2018-May-18 05:54N 49°52' W 005°56'512.6
2018-May-18 05:30N 49°56' W 006°01'714.3
2018-May-18 05:01N 50°03' W 006°01'814.3
2018-May-18 04:29N 50°10' W 006°01'714.5
2018-May-18 04:00N 50°17' W 006°02'714.9
2018-May-18 03:30N 50°25' W 006°02'815.5
2018-May-18 03:01N 50°32' W 006°02'815.9
2018-May-18 02:30N 50°40' W 006°02'816.1
2018-May-18 02:00N 50°48' W 006°02'816.3
2018-May-18 01:30N 50°57' W 006°02'816.4
2018-May-18 01:00N 51°05' W 006°01'816.3
2018-May-18 00:30N 51°13' W 006°01'816.0
2018-May-18 00:00N 51°21' W 006°01'815.8
2018-May-17 23:30N 51°29' W 006°01'815.5
2018-May-17 23:00N 51°37' W 006°01'815.0
2018-May-17 22:30N 51°44' W 005°58'714.4
2018-May-17 22:01N 51°51' W 005°54'2013.3
2018-May-17 20:29N 52°09' W 005°42'1513.6
2018-May-17 19:21N 52°24' W 005°33'514.5
2018-May-17 19:00N 52°29' W 005°30'815.3
2018-May-17 18:29N 52°36' W 005°25'816.4
2018-May-17 18:00N 52°43' W 005°21'917.5
2018-May-17 17:30N 52°51' W 005°15'1318.6
2018-May-17 16:50N 53°03' W 005°09'818.5
2018-May-17 16:25N 53°10' W 005°04'4016.5
2018-May-17 13:59N 53°34' W 004°10'817.3
2018-May-17 13:30N 53°34' W 003°56'816.4
2018-May-17 13:00N 53°34' W 003°42'815.7
2018-May-17 12:30N 53°33' W 003°29'714.7
2018-May-17 12:00N 53°32' W 003°17'611.7
2018-May-17 11:29N 53°31' W 003°07'611.5
2018-May-17 11:00N 53°27' W 003°01'0 0.9
2018-May-17 10:30N 53°27' W 003°01'0 0.5
2018-May-17 10:00N 53°27' W 003°01'0 0.7
2018-May-17 09:30N 53°28' W 003°01'0 0.0
2018-May-17 09:00N 53°28' W 003°01'0 0.0
2018-May-17 08:30N 53°28' W 003°01'0 0.0
2018-May-17 08:00N 53°28' W 003°01'0 0.0
2018-May-17 07:30N 53°28' W 003°01'0 0.0
2018-May-17 07:00N 53°28' W 003°01'0 0.0
2018-May-17 06:30N 53°28' W 003°01'0 0.0
2018-May-17 06:00N 53°28' W 003°01'0 0.0
2018-May-17 05:30N 53°28' W 003°01'0 0.0
2018-May-17 05:00N 53°28' W 003°01'0 0.0
2018-May-17 04:31N 53°28' W 003°01'0 0.0
2018-May-17 03:58N 53°28' W 003°01'0 0.0
2018-May-17 03:30N 53°28' W 003°01'0 0.0
2018-May-17 03:01N 53°28' W 003°01'0 0.0
2018-May-17 02:30N 53°28' W 003°01'0 0.0
2018-May-17 02:00N 53°28' W 003°01'0 0.0
2018-May-17 01:30N 53°28' W 003°01'0 0.0
2018-May-17 01:00N 53°28' W 003°01'0 0.0
2018-May-17 00:30N 53°28' W 003°01'0 0.0
2018-May-17 00:01N 53°28' W 003°01'0 0.0
2018-May-16 23:30N 53°28' W 003°01'0 0.0
2018-May-16 23:00N 53°28' W 003°01'0 0.0
2018-May-16 22:29N 53°28' W 003°01'0 0.0
2018-May-16 22:00N 53°28' W 003°01'0 0.0
2018-May-16 21:30N 53°28' W 003°01'0 0.0
2018-May-16 21:00N 53°28' W 003°01'0 0.0
2018-May-16 20:30N 53°28' W 003°01'0 0.0
2018-May-16 20:00N 53°28' W 003°01'0 0.0
2018-May-16 19:31N 53°28' W 003°01'0 0.0
2018-May-16 19:00N 53°28' W 003°01'0 0.0
2018-May-16 18:30N 53°28' W 003°01'0 0.0
2018-May-16 18:00N 53°28' W 003°01'0 0.0
2018-May-16 17:30N 53°28' W 003°01'0 0.0
2018-May-16 17:00N 53°28' W 003°01'0 0.0
2018-May-16 16:30N 53°28' W 003°01'0 0.0
2018-May-16 16:00N 53°28' W 003°01'0 0.0
2018-May-16 15:31N 53°28' W 003°01'0 0.0
2018-May-16 15:01N 53°28' W 003°01'0 0.0
2018-May-16 14:30N 53°28' W 003°01'0 0.0
2018-May-16 14:01N 53°28' W 003°01'0 0.0
2018-May-16 13:30N 53°28' W 003°01'0 0.0
2018-May-16 13:01N 53°28' W 003°01'0 0.0
2018-May-16 12:30N 53°28' W 003°01'0 0.0
2018-May-16 12:00N 53°28' W 003°01'0 0.0
2018-May-16 11:30N 53°28' W 003°01'0 0.0
2018-May-16 11:00N 53°28' W 003°01'1 1.3
2018-May-16 10:31N 53°27' W 003°01'0 0.3
2018-May-16 10:00N 53°27' W 003°01'1 1.2
2018-May-16 09:29N 53°27' W 003°02'3 6.4
2018-May-16 09:01N 53°29' W 003°05'5 9.0
2018-May-16 08:30N 53°31' W 003°12'510.3
2018-May-16 08:01N 53°31' W 003°21'4 8.3
2018-May-16 07:30N 53°31' W 003°28'815.1
2018-May-16 06:59N 53°30' W 003°41'714.6
2018-May-16 06:30N 53°28' W 003°52'714.3
2018-May-16 06:00N 53°26' W 004°04'4 0.3
2018-May-15 17:09N 53°23' W 004°10'0 0.4
2018-May-15 16:51N 53°24' W 004°10'0 0.2
2018-May-15 16:30N 53°24' W 004°10'0 0.0
2018-May-15 16:00N 53°24' W 004°10'0 0.0
2018-May-15 15:00N 53°24' W 004°10'0 0.0
2018-May-15 13:12N 53°24' W 004°10'12211.9
2018-May-15 02:55N 51°37' W 005°46'613.5
2018-May-15 02:30N 51°35' W 005°38'713.1
2018-May-15 02:00N 51°33' W 005°28'712.9
2018-May-15 01:30N 51°31' W 005°18'613.0
2018-May-15 01:01N 51°29' W 005°08'714.0
2018-May-15 00:30N 51°26' W 004°58'714.6
2018-May-15 00:01N 51°24' W 004°47'914.7
2018-May-14 23:24N 51°22' W 004°33'815.3
2018-May-14 22:51N 51°22' W 004°19'616.8
2018-May-14 22:29N 51°22' W 004°09'817.0
2018-May-14 22:00N 51°22' W 003°56'917.6
2018-May-14 21:30N 51°22' W 003°42'1817.7
2018-May-14 20:31N 51°21' W 003°14'010.7
2018-May-14 20:30N 51°21' W 003°14'612.1
2018-May-14 20:01N 51°23' W 003°05'815.2
2018-May-14 19:30N 51°28' W 002°55'713.6
2018-May-14 19:00N 51°30' W 002°45'1 1.7
2018-May-14 18:30N 51°30' W 002°43'0 0.6
2018-May-14 18:00N 51°30' W 002°43'0 0.0
2018-May-14 17:30N 51°30' W 002°43'0 0.0
2018-May-14 17:00N 51°30' W 002°43'0 0.0
2018-May-14 16:30N 51°30' W 002°43'0 0.0
2018-May-14 16:00N 51°30' W 002°43'0 0.0
2018-May-14 15:30N 51°30' W 002°43'0 0.0
2018-May-14 15:00N 51°30' W 002°43'0 0.0
2018-May-14 14:30N 51°30' W 002°43'0 0.0
2018-May-14 14:00N 51°30' W 002°43'0 0.0
2018-May-14 13:30N 51°30' W 002°43'0 0.0
2018-May-14 13:00N 51°30' W 002°43'0 0.0
2018-May-14 12:30N 51°30' W 002°43'0 0.0
2018-May-14 11:54N 51°30' W 002°43'0 0.0
2018-May-14 11:30N 51°30' W 002°43'0 0.0
2018-May-14 11:00N 51°30' W 002°43'0 0.0
2018-May-14 10:30N 51°30' W 002°43'0 0.0
2018-May-14 10:00N 51°30' W 002°43'0 0.0
2018-May-14 09:30N 51°30' W 002°43'0 0.0
2018-May-14 09:00N 51°30' W 002°43'0 0.0
2018-May-14 08:30N 51°30' W 002°43'0 0.0
2018-May-14 08:00N 51°30' W 002°43'0 0.0
2018-May-14 07:30N 51°30' W 002°43'0 0.0
2018-May-14 07:00N 51°30' W 002°43'0 0.0
2018-May-14 06:30N 51°30' W 002°43'0 0.0
2018-May-14 06:00N 51°30' W 002°43'0 0.0
2018-May-14 05:30N 51°30' W 002°43'0 0.0
2018-May-14 04:57N 51°30' W 002°43'0 0.0
2018-May-14 04:30N 51°30' W 002°43'0 0.7
2018-May-14 04:00N 51°30' W 002°43'0 0.1
2018-May-14 03:30N 51°30' W 002°44'1 1.3
2018-May-14 03:00N 51°31' W 002°44'3 7.0
2018-May-14 02:30N 51°29' W 002°49'713.3
2018-May-14 02:01N 51°27' W 002°59'815.9
2018-May-14 01:30N 51°22' W 003°08'6 9.6
2018-May-14 00:55N 51°20' W 003°17'7 9.7
2018-May-14 00:13N 51°14' W 003°23'22 2.1
2018-May-13 13:50N 51°23' W 003°54'2015.3
2018-May-13 12:30N 51°22' W 004°27'915.4
2018-May-13 11:55N 51°20' W 004°41'615.4
2018-May-13 11:31N 51°15' W 004°47'714.8
2018-May-13 11:01N 51°09' W 004°55'714.5
2018-May-13 10:31N 51°04' W 005°02'714.3
2018-May-13 10:01N 50°58' W 005°09'714.1
2018-May-13 09:31N 50°53' W 005°17'714.1
2018-May-13 09:01N 50°48' W 005°24'713.9
2018-May-13 08:30N 50°42' W 005°31'713.9
2018-May-13 08:01N 50°37' W 005°38'1013.8
2018-May-13 07:17N 50°29' W 005°47'3511.7
2018-May-13 04:15N 49°54' W 005°44'313.2
2018-May-13 03:59N 49°54' W 005°39'2013.0
2018-May-13 02:26N 49°55' W 005°08'613.6
2018-May-13 01:59N 49°55' W 004°58'713.8
2018-May-13 01:30N 49°56' W 004°47'1014.2
2018-May-13 00:49N 49°56' W 004°33'514.5
2018-May-13 00:30N 49°57' W 004°25'815.0
2018-May-13 00:00N 49°57' W 004°14'915.3
2018-May-12 23:26N 49°58' W 004°00'915.6
2018-May-12 22:50N 49°58' W 003°46'515.8
2018-May-12 22:31N 49°58' W 003°38'815.6
2018-May-12 22:00N 49°58' W 003°26'815.5
2018-May-12 21:30N 49°59' W 003°14'815.0
2018-May-12 21:00N 49°60' W 003°02'714.6
2018-May-12 20:30N 50°02' W 002°51'714.1
2018-May-12 20:00N 50°04' W 002°41'713.6
2018-May-12 19:30N 50°06' W 002°30'613.0
2018-May-12 19:01N 50°07' W 002°21'612.3
2018-May-12 18:30N 50°09' W 002°12'611.9
2018-May-12 17:59N 50°11' W 002°02'811.6
2018-May-12 17:18N 50°13' W 001°50'411.7
2018-May-12 16:57N 50°14' W 001°44'1112.4
2018-May-12 16:03N 50°17' W 001°27'2014.6
2018-May-12 14:43N 50°22' W 000°58'417.2
2018-May-12 14:30N 50°23' W 000°52'816.5
2018-May-12 14:00N 50°25' W 000°39'816.3
2018-May-12 13:30N 50°26' W 000°27'816.5
2018-May-12 13:00N 50°28' W 000°14'816.3
2018-May-12 12:30N 50°30' W 000°02'816.3
2018-May-12 12:00N 50°32' E 000°10'816.0
2018-May-12 11:30N 50°34' E 000°23'815.6
2018-May-12 11:00N 50°36' E 000°35'815.0
2018-May-12 10:30N 50°40' E 000°45'714.5
2018-May-12 10:00N 50°43' E 000°55'713.6
2018-May-12 09:30N 50°47' E 001°04'713.1
2018-May-12 09:00N 50°51' E 001°12'713.1
2018-May-12 08:30N 50°56' E 001°19'713.2
2018-May-12 08:00N 51°01' E 001°26'713.9
2018-May-12 07:30N 51°06' E 001°34'714.7
2018-May-12 07:00N 51°11' E 001°42'815.5
2018-May-12 06:30N 51°18' E 001°49'816.2
2018-May-12 06:01N 51°25' E 001°53'816.0
2018-May-12 05:30N 51°31' E 002°02'815.9
2018-May-12 05:00N 51°37' E 002°11'815.8
2018-May-12 04:30N 51°42' E 002°20'815.4
2018-May-12 04:00N 51°48' E 002°28'2114.5
2018-May-12 02:33N 52°02' E 002°54'215.1
2018-May-12 02:26N 52°02' E 002°57'614.9
2018-May-12 02:00N 52°03' E 003°07'714.7
2018-May-12 01:30N 52°03' E 003°19'714.5
2018-May-12 01:00N 52°04' E 003°31'714.3
2018-May-12 00:30N 52°04' E 003°42'713.6
2018-May-12 00:00N 52°03' E 003°53'5 9.7
2018-May-11 23:30N 52°01' E 004°00'4 8.1
2018-May-11 23:00N 51°58' E 004°05'3 6.3
2018-May-11 22:30N 51°58' E 003°60'1 1.6
2018-May-11 22:00N 51°57' E 004°00'0 0.0
2018-May-11 21:24N 51°57' E 004°00'0 0.0
2018-May-11 20:57N 51°57' E 004°00'0 0.0
2018-May-11 20:27N 51°57' E 004°00'0 0.0
2018-May-11 20:00N 51°57' E 004°00'0 0.0
2018-May-11 19:30N 51°57' E 004°00'0 0.0
2018-May-11 19:00N 51°57' E 004°00'0 0.0
2018-May-11 18:30N 51°57' E 004°00'0 0.0
2018-May-11 18:00N 51°57' E 004°00'0 0.0
2018-May-11 17:27N 51°57' E 004°00'0 0.0
2018-May-11 17:00N 51°57' E 004°00'0 0.0
2018-May-11 16:30N 51°57' E 004°00'0 0.0
2018-May-11 16:00N 51°57' E 004°00'0 0.0
2018-May-11 15:30N 51°57' E 004°00'0 0.0
2018-May-11 15:00N 51°57' E 004°00'0 0.0
2018-May-11 14:30N 51°57' E 004°00'0 0.0
2018-May-11 13:54N 51°57' E 004°00'0 0.0
2018-May-11 13:30N 51°57' E 004°00'0 0.0
2018-May-11 13:00N 51°57' E 004°00'0 0.0
2018-May-11 12:30N 51°57' E 004°00'0 0.0
2018-May-11 12:00N 51°57' E 004°00'0 0.0
2018-May-11 11:27N 51°57' E 004°00'0 0.0
2018-May-11 11:00N 51°57' E 004°00'  

Dump ship's entire track history